createdAt,value
2022-10-11T00:00:22.009Z,76.54
2022-10-11T00:02:48.904Z,76.61
2022-10-11T00:05:15.810Z,76.78
2022-10-11T00:07:43.387Z,77.04
2022-10-11T00:10:10.968Z,76.37
2022-10-11T00:12:38.000Z,76.00
2022-10-11T00:15:06.771Z,76.47
2022-10-11T00:17:34.797Z,76.09
2022-10-11T00:20:01.629Z,75.95
2022-10-11T00:22:28.637Z,76.15
2022-10-11T00:24:55.470Z,76.90
2022-10-11T00:27:22.403Z,76.57
2022-10-11T00:29:49.171Z,76.82
2022-10-11T00:32:16.417Z,76.55
2022-10-11T00:34:48.766Z,77.65
2022-10-11T00:37:15.629Z,77.27
2022-10-11T00:39:51.552Z,77.87
2022-10-11T00:42:18.798Z,77.49
2022-10-11T00:44:50.826Z,77.72
2022-10-11T00:47:24.488Z,78.06
2022-10-11T00:49:59.365Z,78.08
2022-10-11T00:52:33.404Z,77.98
2022-10-11T00:55:07.399Z,77.75
2022-10-11T00:57:39.897Z,77.36
2022-10-11T01:00:10.781Z,77.69
2022-10-11T01:02:38.375Z,77.58
2022-10-11T01:05:28.046Z,77.93
2022-10-11T01:07:55.843Z,78.47
2022-10-11T01:10:23.032Z,77.50
2022-10-11T01:13:11.266Z,77.79
2022-10-11T01:16:03.087Z,78.46
2022-10-11T01:19:05.872Z,78.28
2022-10-11T01:21:55.801Z,78.22
2022-10-11T01:24:34.550Z,77.98
2022-10-11T01:27:20.019Z,78.08
2022-10-11T01:30:05.015Z,78.07
2022-10-11T01:32:47.146Z,78.17
2022-10-11T01:35:41.026Z,78.33
2022-10-11T01:38:13.964Z,78.75
2022-10-11T01:41:12.975Z,77.91
2022-10-11T01:43:42.628Z,78.02
2022-10-11T01:46:11.041Z,77.79
2022-10-11T01:49:07.424Z,77.67
2022-10-11T01:51:47.482Z,77.74
2022-10-11T01:54:49.793Z,77.78
2022-10-11T01:57:50.111Z,78.19
2022-10-11T02:00:44.706Z,77.94
2022-10-11T02:03:23.721Z,77.88
2022-10-11T02:06:11.638Z,77.86
2022-10-11T02:08:50.177Z,78.04
2022-10-11T02:11:26.597Z,78.37
2022-10-11T02:14:04.687Z,78.29
2022-10-11T02:17:07.223Z,78.14
2022-10-11T02:19:44.706Z,77.51
2022-10-11T02:22:23.263Z,78.49
2022-10-11T02:24:55.432Z,77.77
2022-10-11T02:27:27.652Z,78.62
2022-10-11T02:29:59.888Z,78.18
2022-10-11T02:32:29.770Z,78.06
2022-10-11T02:34:59.038Z,77.89
2022-10-11T02:37:41.061Z,78.36
2022-10-11T02:40:15.692Z,78.55
2022-10-11T02:42:53.761Z,77.95
2022-10-11T02:45:34.683Z,78.33
2022-10-11T02:48:02.688Z,77.38
2022-10-11T02:50:44.375Z,77.65
2022-10-11T02:53:11.448Z,78.04
2022-10-11T02:55:38.231Z,77.74
2022-10-11T02:58:06.508Z,77.93
2022-10-11T03:00:33.413Z,77.98
2022-10-11T03:03:00.352Z,78.39
2022-10-11T03:05:27.150Z,77.58
2022-10-11T03:07:57.107Z,77.34
2022-10-11T03:10:23.879Z,78.07
2022-10-11T03:12:50.696Z,78.11
2022-10-11T03:15:17.581Z,78.22
2022-10-11T03:17:44.490Z,78.20
2022-10-11T03:20:11.417Z,77.93
2022-10-11T03:22:38.271Z,77.75
2022-10-11T03:25:05.382Z,78.32
2022-10-11T03:27:53.235Z,77.89
2022-10-11T03:30:20.201Z,77.36
2022-10-11T03:32:47.046Z,77.50
2022-10-11T03:35:13.934Z,77.40
2022-10-11T03:37:40.722Z,77.83
2022-10-11T03:40:08.306Z,77.35
2022-10-11T03:42:35.958Z,76.62
2022-10-11T03:45:03.383Z,77.25
2022-10-11T03:47:31.126Z,76.96
2022-10-11T03:49:58.090Z,76.87
2022-10-11T03:52:24.896Z,76.67
2022-10-11T03:54:52.104Z,76.27
2022-10-11T03:57:19.481Z,77.14
2022-10-11T03:59:46.401Z,76.36
2022-10-11T04:02:13.352Z,76.45
2022-10-11T04:04:40.364Z,75.74
2022-10-11T04:07:07.775Z,75.98
2022-10-11T04:09:34.707Z,76.05
2022-10-11T04:12:01.652Z,75.91
2022-10-11T04:14:28.541Z,76.52
2022-10-11T04:16:58.404Z,76.02
2022-10-11T04:19:27.411Z,76.36
2022-10-11T04:21:54.223Z,76.25
2022-10-11T04:24:21.052Z,76.21
2022-10-11T04:26:48.528Z,76.87
2022-10-11T04:29:15.491Z,76.76
2022-10-11T04:31:42.382Z,76.56
2022-10-11T04:34:09.328Z,76.38
2022-10-11T04:36:36.258Z,76.20
2022-10-11T04:39:05.672Z,76.24
2022-10-11T04:41:32.965Z,76.89
2022-10-11T04:44:01.049Z,76.43
2022-10-11T04:46:28.189Z,76.64
2022-10-11T04:48:55.162Z,76.59
2022-10-11T04:51:22.508Z,76.48
2022-10-11T04:53:49.743Z,76.79
2022-10-11T04:56:17.367Z,76.85
2022-10-11T04:58:45.775Z,76.51
2022-10-11T05:01:12.592Z,76.38
2022-10-11T05:03:43.198Z,76.25
2022-10-11T05:06:10.491Z,76.33
2022-10-11T05:08:39.047Z,76.09
2022-10-11T05:11:10.436Z,76.54
2022-10-11T05:13:37.395Z,77.73
2022-10-11T05:16:10.426Z,76.87
2022-10-11T05:18:57.086Z,76.59
2022-10-11T05:21:26.848Z,75.99
2022-10-11T05:23:55.471Z,76.59
2022-10-11T05:26:23.454Z,76.50
2022-10-11T05:28:50.403Z,76.28
2022-10-11T05:31:17.263Z,76.10
2022-10-11T05:33:44.208Z,76.71
2022-10-11T05:36:11.772Z,76.15
2022-10-11T05:38:39.054Z,76.82
2022-10-11T05:41:06.695Z,76.23
2022-10-11T05:43:33.520Z,76.24
2022-10-11T05:46:00.446Z,76.66
2022-10-11T05:48:27.486Z,76.07
2022-10-11T05:51:06.115Z,76.48
2022-10-11T05:53:33.611Z,76.35
2022-10-11T05:56:20.455Z,76.75
2022-10-11T05:58:47.450Z,77.01
2022-10-11T06:01:26.244Z,77.06
2022-10-11T06:03:53.836Z,76.37
2022-10-11T06:06:20.846Z,77.07
2022-10-11T06:08:51.165Z,76.25
2022-10-11T06:11:25.358Z,76.84
2022-10-11T06:13:57.380Z,76.39
2022-10-11T06:16:24.946Z,75.82
2022-10-11T06:18:58.263Z,76.27
2022-10-11T06:21:25.171Z,75.88
2022-10-11T06:23:56.831Z,75.94
2022-10-11T06:26:27.397Z,75.53
2022-10-11T06:28:54.323Z,75.77
2022-10-11T06:31:21.650Z,75.53
2022-10-11T06:33:48.635Z,74.54
2022-10-11T06:36:16.422Z,74.73
2022-10-11T06:38:45.423Z,74.28
2022-10-11T06:41:21.328Z,74.73
2022-10-11T06:43:48.406Z,74.32
2022-10-11T06:46:16.293Z,74.42
2022-10-11T06:48:44.593Z,74.35
2022-10-11T06:51:17.682Z,74.57
2022-10-11T06:53:52.180Z,75.04
2022-10-11T06:56:19.701Z,74.74
2022-10-11T06:58:46.687Z,74.14
2022-10-11T07:01:15.501Z,73.97
2022-10-11T07:03:42.629Z,74.70
2022-10-11T07:06:11.830Z,74.29
2022-10-11T07:08:39.450Z,74.44
2022-10-11T07:11:11.821Z,74.23
2022-10-11T07:13:39.816Z,73.79
2022-10-11T07:16:10.199Z,73.89
2022-10-11T07:18:37.593Z,74.06
2022-10-11T07:21:11.433Z,74.48
2022-10-11T07:23:38.427Z,73.48
2022-10-11T07:26:06.674Z,73.40
2022-10-11T07:28:35.282Z,74.16
2022-10-11T07:31:28.259Z,73.53
2022-10-11T07:33:55.159Z,74.18
2022-10-11T07:36:22.312Z,73.25
2022-10-11T07:38:49.615Z,73.32
2022-10-11T07:41:16.993Z,73.84
2022-10-11T07:43:44.334Z,73.75
2022-10-11T07:46:11.449Z,73.81
2022-10-11T07:48:38.850Z,73.44
2022-10-11T07:51:07.335Z,74.35
2022-10-11T07:53:45.680Z,74.03
2022-10-11T07:56:15.147Z,73.39
2022-10-11T07:58:43.018Z,73.70
2022-10-11T08:01:11.563Z,73.86
2022-10-11T08:03:38.854Z,74.03
2022-10-11T08:06:08.503Z,73.35
2022-10-11T08:08:50.201Z,73.40
2022-10-11T08:11:36.228Z,74.23
2022-10-11T08:14:05.727Z,73.00
2022-10-11T08:16:32.554Z,73.28
2022-10-11T08:18:59.382Z,73.61
2022-10-11T08:21:26.577Z,73.62
2022-10-11T08:23:53.428Z,72.74
2022-10-11T08:26:21.222Z,73.68
2022-10-11T08:28:48.413Z,74.16
2022-10-11T08:31:16.361Z,73.21
2022-10-11T08:33:44.155Z,72.69
2022-10-11T08:36:12.145Z,72.66
2022-10-11T08:38:39.775Z,72.63
2022-10-11T08:41:23.999Z,72.27
2022-10-11T08:44:06.077Z,72.42
2022-10-11T08:46:34.518Z,72.31
2022-10-11T08:49:02.530Z,72.10
2022-10-11T08:51:48.374Z,72.43
2022-10-11T08:54:39.523Z,71.61
2022-10-11T08:57:09.913Z,71.39
2022-10-11T08:59:44.013Z,72.02
2022-10-11T09:03:06.468Z,71.71
2022-10-11T09:06:00.867Z,70.86
2022-10-11T09:08:46.353Z,71.38
2022-10-11T09:11:35.153Z,70.79
2022-10-11T09:14:22.834Z,70.26
2022-10-11T09:16:57.017Z,70.21
2022-10-11T09:19:24.031Z,69.79
2022-10-11T09:22:30.895Z,69.85
2022-10-11T09:25:00.437Z,70.32
2022-10-11T09:28:01.219Z,69.79
2022-10-11T09:31:09.230Z,70.62
2022-10-11T09:33:49.126Z,69.88
2022-10-11T09:36:22.819Z,70.12
2022-10-11T09:39:15.152Z,70.07
2022-10-11T09:42:00.714Z,69.53
2022-10-11T09:44:32.698Z,69.31
2022-10-11T09:46:59.668Z,68.96
2022-10-11T09:49:37.352Z,69.76
2022-10-11T09:52:11.226Z,69.23
2022-10-11T09:54:41.327Z,69.32
2022-10-11T09:57:20.432Z,69.55
2022-10-11T09:59:59.239Z,69.20
2022-10-11T10:02:27.271Z,69.64
2022-10-11T10:05:20.370Z,68.86
2022-10-11T10:08:26.401Z,68.94
2022-10-11T10:10:59.395Z,69.29
2022-10-11T10:13:46.131Z,69.55
2022-10-11T10:16:28.158Z,70.07
2022-10-11T10:19:05.100Z,69.56
2022-10-11T10:21:36.471Z,69.57
2022-10-11T10:24:17.269Z,69.02
2022-10-11T10:27:23.860Z,68.74
2022-10-11T10:30:15.828Z,68.89
2022-10-11T10:33:00.667Z,68.80
2022-10-11T10:35:41.363Z,69.89
2022-10-11T10:38:26.234Z,69.54
2022-10-11T10:41:11.768Z,69.67
2022-10-11T10:43:50.931Z,69.08
2022-10-11T10:46:37.717Z,69.38
2022-10-11T10:49:54.035Z,69.23
2022-10-11T10:52:42.004Z,68.50
2022-10-11T10:55:30.863Z,69.67
2022-10-11T10:58:21.945Z,70.14
2022-10-11T11:01:05.534Z,70.68
2022-10-11T11:03:53.853Z,71.40
2022-10-11T11:06:36.445Z,71.10
2022-10-11T11:09:14.072Z,70.93
2022-10-11T11:11:49.603Z,71.56
2022-10-11T11:14:19.765Z,71.57
2022-10-11T11:17:26.278Z,71.01
2022-10-11T11:20:02.209Z,71.29
2022-10-11T11:23:03.319Z,70.98
2022-10-11T11:25:46.784Z,71.22
2022-10-11T11:28:26.623Z,71.03
2022-10-11T11:31:13.518Z,70.96
2022-10-11T11:34:05.340Z,71.17
2022-10-11T11:36:54.267Z,71.02
2022-10-11T11:39:24.609Z,70.63
2022-10-11T11:42:23.612Z,70.83
2022-10-11T11:44:51.799Z,71.31
2022-10-11T11:47:45.763Z,70.96
2022-10-11T11:50:12.651Z,70.93
2022-10-11T11:52:44.353Z,71.30
2022-10-11T11:55:43.730Z,71.82
2022-10-11T11:58:35.136Z,71.64
2022-10-11T12:01:39.396Z,71.86
2022-10-11T12:04:28.252Z,71.99
2022-10-11T12:07:19.514Z,72.12
2022-10-11T12:10:24.585Z,72.38
2022-10-11T12:13:07.409Z,72.25
2022-10-11T12:15:35.834Z,72.68
2022-10-11T12:18:13.528Z,71.95
2022-10-11T12:20:42.042Z,72.28
2022-10-11T12:23:30.654Z,71.88
2022-10-11T12:26:29.716Z,71.83
2022-10-11T12:29:18.392Z,71.83
2022-10-11T12:31:51.093Z,72.50
2022-10-11T12:34:36.841Z,72.19
2022-10-11T12:37:18.954Z,72.59
2022-10-11T12:39:54.061Z,72.35
2022-10-11T12:42:36.659Z,71.74
2022-10-11T12:45:13.436Z,72.22
2022-10-11T12:48:20.262Z,72.15
2022-10-11T12:51:15.236Z,72.15
2022-10-11T12:54:24.968Z,72.68
2022-10-11T12:57:11.672Z,72.60
2022-10-11T12:59:45.523Z,72.64
2022-10-11T13:02:40.264Z,72.04
2022-10-11T13:05:23.766Z,72.35
2022-10-11T13:07:53.147Z,72.23
2022-10-11T13:10:26.481Z,71.98
2022-10-11T13:12:55.019Z,71.15
2022-10-11T13:15:23.435Z,71.81
2022-10-11T13:17:50.557Z,71.55
2022-10-11T13:20:17.336Z,71.54
2022-10-11T13:22:47.732Z,71.54
2022-10-11T13:25:20.417Z,72.34
2022-10-11T13:27:49.543Z,72.01
2022-10-11T13:30:20.279Z,72.52
2022-10-11T13:32:48.502Z,72.60
2022-10-11T13:35:54.107Z,71.85
2022-10-11T13:38:31.474Z,71.95
2022-10-11T13:41:01.496Z,71.81
2022-10-11T13:43:30.911Z,71.53
2022-10-11T13:46:01.326Z,72.00
2022-10-11T13:48:31.891Z,71.93
2022-10-11T13:51:13.858Z,71.95
2022-10-11T13:54:01.335Z,71.82
2022-10-11T13:56:32.280Z,71.23
2022-10-11T13:59:02.703Z,72.07
2022-10-11T14:01:36.200Z,71.87
2022-10-11T14:04:07.266Z,71.81
2022-10-11T14:06:43.346Z,72.32
2022-10-11T14:09:26.331Z,72.13
2022-10-11T14:11:56.334Z,73.12
2022-10-11T14:14:33.619Z,72.47
2022-10-11T14:18:02.288Z,72.72
2022-10-11T14:20:40.625Z,72.54
2022-10-11T14:23:10.405Z,73.08
2022-10-11T14:25:38.488Z,73.13
2022-10-11T14:28:11.288Z,72.83
2022-10-11T14:30:41.351Z,73.52
2022-10-11T14:33:08.221Z,72.82
2022-10-11T14:35:36.955Z,73.29
2022-10-11T14:38:03.846Z,73.08
2022-10-11T14:40:31.505Z,73.61
2022-10-11T14:43:00.897Z,72.78
2022-10-11T14:45:27.808Z,72.73
2022-10-11T14:47:55.908Z,73.41
2022-10-11T14:50:37.521Z,73.34
2022-10-11T14:53:05.949Z,73.56
2022-10-11T14:55:52.812Z,73.47
2022-10-11T14:58:19.762Z,73.59
2022-10-11T15:00:46.602Z,74.30
2022-10-11T15:03:13.518Z,74.84
2022-10-11T15:05:40.380Z,74.68
2022-10-11T15:08:07.836Z,75.23
2022-10-11T15:10:45.253Z,75.52
2022-10-11T15:13:12.282Z,75.23
2022-10-11T15:15:39.584Z,76.18
2022-10-11T15:18:08.623Z,75.58
2022-10-11T15:20:44.762Z,75.38
2022-10-11T15:23:14.942Z,75.41
2022-10-11T15:25:41.886Z,75.75
2022-10-11T15:28:20.920Z,75.53
2022-10-11T15:30:48.268Z,75.50
2022-10-11T15:33:15.071Z,76.08
2022-10-11T15:35:41.996Z,75.68
2022-10-11T15:38:24.686Z,75.51
2022-10-11T15:40:53.270Z,76.15
2022-10-11T15:43:24.461Z,75.71
2022-10-11T15:45:56.925Z,76.02
2022-10-11T15:48:26.756Z,75.71
2022-10-11T15:50:56.272Z,75.68
2022-10-11T15:53:26.088Z,75.85
2022-10-11T15:56:29.287Z,76.09
2022-10-11T15:58:58.700Z,76.39
2022-10-11T16:01:27.921Z,76.43
2022-10-11T16:03:54.881Z,76.80
2022-10-11T16:06:22.238Z,76.53
2022-10-11T16:08:49.269Z,75.95
2022-10-11T16:11:16.647Z,76.15
2022-10-11T16:13:47.289Z,75.73
2022-10-11T16:16:14.133Z,75.47
2022-10-11T16:18:40.936Z,76.68
2022-10-11T16:21:11.042Z,76.58
2022-10-11T16:23:38.290Z,76.54
2022-10-11T16:26:08.346Z,75.91
2022-10-11T16:28:35.945Z,76.48
2022-10-11T16:31:10.766Z,76.34
2022-10-11T16:33:38.149Z,76.42
2022-10-11T16:36:08.692Z,76.22
2022-10-11T16:38:36.282Z,75.89
2022-10-11T16:41:05.921Z,75.83
2022-10-11T16:43:44.279Z,75.63
2022-10-11T16:46:11.158Z,76.74
2022-10-11T16:48:38.478Z,76.68
2022-10-11T16:51:07.579Z,76.55
2022-10-11T16:53:35.892Z,76.19
2022-10-11T16:56:10.389Z,76.15
2022-10-11T16:58:37.417Z,76.25
2022-10-11T17:01:09.331Z,76.20
2022-10-11T17:03:36.741Z,76.01
2022-10-11T17:06:04.902Z,76.61
2022-10-11T17:08:32.107Z,76.34
2022-10-11T17:10:59.217Z,75.79
2022-10-11T17:13:26.452Z,75.83
2022-10-11T17:15:53.300Z,76.30
2022-10-11T17:18:25.219Z,75.50
2022-10-11T17:21:07.701Z,75.85
2022-10-11T17:23:38.349Z,75.34
2022-10-11T17:26:11.228Z,74.77
2022-10-11T17:28:39.387Z,75.89
2022-10-11T17:31:06.795Z,76.25
2022-10-11T17:33:36.649Z,75.15
2022-10-11T17:36:32.705Z,76.57
2022-10-11T17:39:01.368Z,76.10
2022-10-11T17:41:32.107Z,76.37
2022-10-11T17:44:00.314Z,76.31
2022-10-11T17:46:27.336Z,76.77
2022-10-11T17:49:13.093Z,76.99
2022-10-11T17:51:41.053Z,76.68
2022-10-11T17:54:08.421Z,77.13
2022-10-11T17:56:40.082Z,77.08
2022-10-11T17:59:14.865Z,76.12
2022-10-11T18:01:41.911Z,76.29
2022-10-11T18:04:10.586Z,76.58
2022-10-11T18:09:27.478Z,76.30
2022-10-11T18:11:54.389Z,75.27
2022-10-11T18:14:21.312Z,75.62
2022-10-11T18:16:48.565Z,75.14
2022-10-11T18:19:15.584Z,74.22
2022-10-11T18:21:42.600Z,74.67
2022-10-11T18:24:15.185Z,75.21
2022-10-11T18:26:43.047Z,75.22
2022-10-11T18:29:09.961Z,76.09
2022-10-11T18:31:36.953Z,75.68
2022-10-11T18:34:05.588Z,74.72
2022-10-11T18:36:32.989Z,75.12
2022-10-11T18:39:11.762Z,74.91
2022-10-11T18:41:39.705Z,75.94
2022-10-11T18:44:08.834Z,75.29
2022-10-11T18:46:36.069Z,75.60
2022-10-11T18:49:03.486Z,75.42
2022-10-11T18:51:38.159Z,74.97
2022-10-11T18:54:06.854Z,74.67
2022-10-11T18:56:35.740Z,74.66
2022-10-11T18:59:03.908Z,74.56
2022-10-11T19:01:36.360Z,74.54
2022-10-11T19:04:04.981Z,74.43
2022-10-11T19:06:41.440Z,74.48
2022-10-11T19:09:28.460Z,73.90
2022-10-11T19:12:00.142Z,74.38
2022-10-11T19:14:29.561Z,74.31
2022-10-11T19:16:57.295Z,74.44
2022-10-11T19:20:01.261Z,74.18
2022-10-11T19:22:28.279Z,74.20
2022-10-11T19:24:55.070Z,74.15
2022-10-11T19:27:22.090Z,74.23
2022-10-11T19:29:48.989Z,74.28
2022-10-11T19:32:15.874Z,74.68
2022-10-11T19:34:42.746Z,74.70
2022-10-11T19:37:09.551Z,74.81
2022-10-11T19:39:36.458Z,75.20
2022-10-11T19:42:03.497Z,75.47
2022-10-11T19:44:31.756Z,75.68
2022-10-11T19:47:04.920Z,75.70
2022-10-11T19:49:32.167Z,75.73
2022-10-11T19:51:59.127Z,75.46
2022-10-11T19:54:25.997Z,75.22
2022-10-11T19:56:52.883Z,76.36
2022-10-11T19:59:19.977Z,75.32
2022-10-11T20:01:53.255Z,76.17
2022-10-11T20:07:08.189Z,76.77
2022-10-11T20:09:35.224Z,77.60
2022-10-11T20:12:02.157Z,77.97
2022-10-11T20:14:29.022Z,77.11
2022-10-11T20:16:55.913Z,77.17
2022-10-11T20:19:27.712Z,77.74
2022-10-11T20:21:57.252Z,76.89
2022-10-11T20:24:24.058Z,76.95
2022-10-11T20:26:50.918Z,77.34
2022-10-11T20:29:17.796Z,78.34
2022-10-11T20:31:44.877Z,77.84
2022-10-11T20:34:11.787Z,77.32
2022-10-11T20:36:38.702Z,76.96
2022-10-11T20:39:05.685Z,77.59
2022-10-11T20:41:37.522Z,77.09
2022-10-11T20:44:05.177Z,77.28
2022-10-11T20:46:34.243Z,77.05
2022-10-11T20:49:04.161Z,77.14
2022-10-11T20:51:32.785Z,76.45
2022-10-11T20:54:00.674Z,76.52
2022-10-11T20:56:28.049Z,77.01
2022-10-11T20:58:56.444Z,76.75
2022-10-11T21:01:29.750Z,77.33
2022-10-11T21:03:58.822Z,77.43
2022-10-11T21:06:26.292Z,76.65
2022-10-11T21:08:57.967Z,76.35
2022-10-11T21:11:30.640Z,76.75
2022-10-11T21:13:59.196Z,76.33
2022-10-11T21:16:27.059Z,76.41
2022-10-11T21:18:56.077Z,77.15
2022-10-11T21:21:32.764Z,76.99
2022-10-11T21:24:01.725Z,76.25
2022-10-11T21:26:30.225Z,76.07
2022-10-11T21:28:57.643Z,76.33
2022-10-11T21:31:24.547Z,75.88
2022-10-11T21:33:51.791Z,75.51
2022-10-11T21:36:23.379Z,75.82
2022-10-11T21:38:51.589Z,76.05
2022-10-11T21:41:26.313Z,75.81
2022-10-11T21:43:53.625Z,75.20
2022-10-11T21:46:32.519Z,75.96
2022-10-11T21:49:12.331Z,75.69
2022-10-11T21:51:39.125Z,75.97
2022-10-11T21:54:06.041Z,75.43
2022-10-11T21:56:32.940Z,75.96
2022-10-11T21:58:59.783Z,75.13
2022-10-11T22:01:26.610Z,75.99
2022-10-11T22:04:04.407Z,75.75
2022-10-11T22:06:31.319Z,75.56
2022-10-11T22:08:58.107Z,76.11
2022-10-11T22:11:25.297Z,75.77
2022-10-11T22:13:52.100Z,75.69
2022-10-11T22:16:19.370Z,74.75
2022-10-11T22:18:46.479Z,75.10
2022-10-11T22:21:16.377Z,74.80
2022-10-11T22:23:46.234Z,74.79
2022-10-11T22:26:16.574Z,74.84
2022-10-11T22:28:43.994Z,75.25
2022-10-11T22:31:10.832Z,74.87
2022-10-11T22:33:38.104Z,75.21
2022-10-11T22:36:07.518Z,74.97
2022-10-11T22:38:45.339Z,74.78
2022-10-11T22:41:12.457Z,74.85
2022-10-11T22:43:39.316Z,75.01
2022-10-11T22:46:06.814Z,74.35
2022-10-11T22:48:34.083Z,75.42
2022-10-11T22:51:01.625Z,74.48
2022-10-11T22:53:29.124Z,75.01
2022-10-11T22:55:56.406Z,74.24
2022-10-11T22:58:23.287Z,74.09
2022-10-11T23:00:50.240Z,73.96
2022-10-11T23:03:18.810Z,73.71
2022-10-11T23:05:55.061Z,73.33
2022-10-11T23:08:21.991Z,74.25
2022-10-11T23:10:54.404Z,74.02
2022-10-11T23:13:21.603Z,73.74
2022-10-11T23:15:48.503Z,73.80
2022-10-11T23:18:16.974Z,73.80
2022-10-11T23:20:44.365Z,73.60
2022-10-11T23:23:11.297Z,74.19
2022-10-11T23:25:39.168Z,73.21
2022-10-11T23:28:06.286Z,73.63
2022-10-11T23:30:33.131Z,73.48
2022-10-11T23:33:00.071Z,73.92
2022-10-11T23:35:26.951Z,73.49
2022-10-11T23:37:54.119Z,73.56
2022-10-11T23:40:21.131Z,72.85
2022-10-11T23:42:48.017Z,73.39
2022-10-11T23:45:14.914Z,72.88
2022-10-11T23:47:41.811Z,73.03
2022-10-11T23:50:09.106Z,72.97
2022-10-11T23:52:36.211Z,72.37
2022-10-11T23:55:03.329Z,72.32
2022-10-11T23:57:30.348Z,72.47
2022-10-11T23:59:57.136Z,72.24
